Time;durP1;ratioP1;P1;durP2;ratioP2;P2;SDS_P1;SDS_P2;PMS_P1;PMS_P2;Temp;Humidity;BMP_temperature;BMP_pressure;BME280_temperature;BME280_humidity;BME280_pressure;Samples;Min_cycle;Max_cycle;Signal;HPM_P1;HPM_P2
2021/11/15 00:02:00;;;;;;;8.48;6.38;;;21.00;52.80;;;;;;6218436;28;20114;-69
2021/11/15 00:05:01;;;;;;;;;;;21.00;52.80;;;;;;6217177;28;20026;-68
2021/11/15 00:08:01;;;;;;;10.60;7.22;;;21.00;52.80;;;;;;6233599;28;19952;-69
2021/11/15 00:11:03;;;;;;;9.93;7.35;;;21.00;52.80;;;;;;6216896;28;20466;-69
2021/11/15 00:14:04;;;;;;;9.98;6.78;;;21.00;52.80;;;;;;6203346;28;20514;-70
2021/11/15 00:17:05;;;;;;;9.80;7.28;;;21.00;52.90;;;;;;6193710;28;20031;-69
2021/11/15 00:20:07;;;;;;;11.48;7.55;;;21.00;52.80;;;;;;6213458;28;20340;-69
2021/11/15 00:23:07;;;;;;;10.02;7.22;;;21.00;52.80;;;;;;6213443;28;20396;-69
2021/11/15 00:26:08;;;;;;;9.55;6.90;;;21.00;52.90;;;;;;6205497;28;20141;-69
2021/11/15 00:29:09;;;;;;;10.45;7.20;;;21.00;52.90;;;;;;6216503;28;20041;-69
2021/11/15 00:32:09;;;;;;;8.88;6.55;;;21.00;52.90;;;;;;6193857;28;20038;-71
2021/11/15 00:35:11;;;;;;;9.48;7.15;;;21.00;52.80;;;;;;6213274;28;20044;-69
2021/11/15 00:38:11;;;;;;;9.90;6.75;;;21.00;52.90;;;;;;6227503;28;20033;-69
2021/11/15 00:41:12;;;;;;;8.98;6.90;;;21.00;52.90;;;;;;6217329;28;20224;-69
2021/11/15 00:44:13;;;;;;;9.20;6.70;;;21.00;52.90;;;;;;6217800;28;20033;-70
2021/11/15 00:47:13;;;;;;;8.50;6.40;;;21.00;52.90;;;;;;6217615;28;20057;-70
2021/11/15 00:50:17;;;;;;;9.13;6.57;;;21.00;52.80;;;;;;6217459;28;20100;-69
2021/11/15 00:53:18;;;;;;;8.75;6.43;;;21.00;52.80;;;;;;6215592;28;20057;-69
2021/11/15 00:56:19;;;;;;;8.30;6.28;;;21.00;52.80;;;;;;6215591;28;20785;-69
2021/11/15 00:59:21;;;;;;;8.82;6.38;;;21.00;52.80;;;;;;6216939;28;20411;-69
2021/11/15 01:02:22;;;;;;;11.02;6.95;;;21.00;52.90;;;;;;6213046;28;20037;-69
2021/11/15 01:05:24;;;;;;;8.13;5.95;;;21.00;52.90;;;;;;6232149;28;20120;-70
2021/11/15 01:08:25;;;;;;;9.35;6.22;;;21.00;52.90;;;;;;6216436;28;20315;-70
2021/11/15 01:11:25;;;;;;;8.80;5.97;;;21.00;52.80;;;;;;6217006;28;20084;-69
2021/11/15 01:14:26;;;;;;;10.80;7.25;;;21.00;52.80;;;;;;6200434;28;20507;-69
2021/11/15 01:17:26;;;;;;;8.95;6.22;;;21.00;52.90;;;;;;6197493;28;20471;-69
2021/11/15 01:20:30;;;;;;;8.95;6.22;;;21.00;52.90;;;;;;6216916;28;20026;-69
2021/11/15 01:23:31;;;;;;;8.80;6.40;;;21.00;52.90;;;;;;6231626;28;20022;-70
2021/11/15 01:26:32;;;;;;;9.52;6.68;;;21.00;52.90;;;;;;6209665;28;20479;-69
2021/11/15 01:29:33;;;;;;;10.38;6.45;;;21.00;52.90;;;;;;6192223;28;20034;-69
2021/11/15 01:32:33;;;;;;;10.20;6.93;;;21.00;52.90;;;;;;6204904;28;20071;-69
2021/11/15 01:35:34;;;;;;;7.93;5.90;;;21.00;52.90;;;;;;6216569;28;20364;-69
2021/11/15 01:38:35;;;;;;;7.90;5.82;;;21.00;52.90;;;;;;6195468;28;20372;-69
2021/11/15 01:41:36;;;;;;;8.95;6.57;;;21.00;52.90;;;;;;6191884;28;20046;-69
2021/11/15 01:44:36;;;;;;;8.40;6.05;;;21.00;52.90;;;;;;6191858;28;20050;-69
2021/11/15 01:47:37;;;;;;;8.73;5.88;;;21.00;52.90;;;;;;6203418;28;20026;-69
2021/11/15 01:50:38;;;;;;;8.82;6.35;;;21.00;52.90;;;;;;6216546;28;20491;-69
2021/11/15 01:53:39;;;;;;;8.48;6.25;;;21.00;52.90;;;;;;6216380;28;20487;-69
2021/11/15 01:56:39;;;;;;;7.80;5.78;;;21.00;52.90;;;;;;6215504;28;20398;-69
2021/11/15 01:59:40;;;;;;;7.88;6.32;;;21.00;52.90;;;;;;6216233;28;20111;-69
2021/11/15 02:02:42;;;;;;;8.52;6.03;;;21.00;53.00;;;;;;6214475;28;20575;-70
2021/11/15 02:05:43;;;;;;;8.27;5.65;;;21.00;52.90;;;;;;6205678;28;20061;-69
2021/11/15 02:08:44;;;;;;;8.23;6.35;;;21.00;52.90;;;;;;6206536;28;20038;-69
2021/11/15 02:11:45;;;;;;;7.28;5.63;;;21.00;52.90;;;;;;6216111;28;20454;-69
2021/11/15 02:14:45;;;;;;;8.57;6.45;;;21.00;52.90;;;;;;6193248;28;20113;-69
2021/11/15 02:17:47;;;;;;;8.63;6.25;;;21.00;53.00;;;;;;6196904;28;20161;-69
2021/11/15 02:21:00;;;;;;;8.63;6.35;;;21.00;53.00;;;;;;6196569;28;20066;-70
2021/11/15 02:24:01;;;;;;;7.53;5.95;;;21.00;52.90;;;;;;6196461;28;20026;-69
2021/11/15 02:27:03;;;;;;;7.68;5.82;;;20.90;52.90;;;;;;6215751;28;20040;-69
2021/11/15 02:30:10;;;;;;;7.78;5.65;;;21.00;53.00;;;;;;6206880;28;20404;-69
2021/11/15 02:33:11;;;;;;;7.40;5.72;;;20.90;52.90;;;;;;6193165;28;20038;-69
2021/11/15 02:36:14;;;;;;;7.55;5.80;;;20.90;52.90;;;;;;6212478;28;20130;-69
2021/11/15 02:39:14;;;;;;;8.20;5.85;;;21.00;53.00;;;;;;6219065;28;20538;-69
2021/11/15 02:42:15;;;;;;;7.38;5.43;;;21.00;52.90;;;;;;6220330;28;20022;-69
2021/11/15 02:45:17;;;;;;;6.85;5.38;;;20.90;52.90;;;;;;6220297;28;20105;-69
2021/11/15 02:48:19;;;;;;;8.23;5.68;;;20.90;52.90;;;;;;6209171;28;20034;-69
2021/11/15 02:51:21;;;;;;;8.18;5.90;;;20.90;52.90;;;;;;6194800;28;20033;-69
2021/11/15 02:54:24;;;;;;;8.48;6.28;;;20.90;52.80;;;;;;6219797;28;20132;-69
2021/11/15 02:57:26;;;;;;;7.55;5.80;;;20.90;52.80;;;;;;6219535;28;20026;-69
2021/11/15 03:00:29;;;;;;;8.52;5.82;;;20.90;52.80;;;;;;6220414;28;20029;-69
2021/11/15 03:03:30;;;;;;;8.07;5.97;;;20.90;52.80;;;;;;6220082;28;20026;-69
2021/11/15 03:06:30;;;;;;;7.68;5.47;;;20.90;52.80;;;;;;6219834;28;20041;-69
2021/11/15 03:09:31;;;;;;;7.43;5.53;;;21.00;52.90;;;;;;6194424;28;20057;-69
2021/11/15 03:12:33;;;;;;;8.70;6.18;;;20.90;52.80;;;;;;6200195;28;20054;-70
2021/11/15 03:15:36;;;;;;;8.25;5.90;;;20.90;52.90;;;;;;6195142;28;20030;-69
2021/11/15 03:18:39;;;;;;;8.52;5.40;;;20.90;52.90;;;;;;6224759;28;20483;-69
2021/11/15 03:21:40;;;;;;;7.18;5.22;;;20.90;52.90;;;;;;6219553;28;20363;-69
2021/11/15 03:24:41;;;;;;;8.32;5.97;;;20.90;52.90;;;;;;6217046;28;20030;-69
2021/11/15 03:27:42;;;;;;;8.13;5.68;;;20.90;52.90;;;;;;6207333;28;20103;-70
2021/11/15 03:30:44;;;;;;;7.90;5.93;;;20.90;52.90;;;;;;6197956;28;20461;-69
2021/11/15 03:33:47;;;;;;;6.88;5.45;;;20.90;52.90;;;;;;6215597;28;20037;-69
2021/11/15 03:36:47;;;;;;;7.85;5.35;;;20.90;52.90;;;;;;6211632;28;20066;-69
2021/11/15 03:39:48;;;;;;;7.53;5.63;;;20.90;52.90;;;;;;6194651;28;20032;-69
2021/11/15 03:42:50;;;;;;;7.72;5.53;;;20.90;52.90;;;;;;6194818;28;20027;-70
2021/11/15 03:45:50;;;;;;;7.40;5.60;;;20.90;53.00;;;;;;6194980;28;20026;-69
2021/11/15 03:48:52;;;;;;;8.02;5.75;;;20.90;52.90;;;;;;6216077;28;20510;-69
2021/11/15 03:51:53;;;;;;;8.95;5.32;;;20.90;52.90;;;;;;6209661;28;20715;-69
2021/11/15 03:54:53;;;;;;;9.23;6.35;;;20.90;52.90;;;;;;6168945;28;20151;-70
2021/11/15 03:57:54;;;;;;;8.18;5.90;;;20.90;52.90;;;;;;6193919;28;20084;-69
2021/11/15 04:00:55;;;;;;;7.50;5.53;;;20.90;52.90;;;;;;6218526;28;20398;-69
2021/11/15 04:04:03;;;;;;;6.97;5.53;;;20.90;53.00;;;;;;6218455;28;20469;-70
2021/11/15 04:07:04;;;;;;;8.02;5.72;;;20.90;52.90;;;;;;6217230;28;20509;-69
2021/11/15 04:10:16;;;;;;;7.85;5.70;;;20.90;52.90;;;;;;6218423;28;20022;-69
2021/11/15 04:13:21;;;;;;;8.23;5.78;;;20.90;52.90;;;;;;6199186;28;20057;-69
2021/11/15 04:16:22;;;;;;;6.53;4.90;;;20.90;52.90;;;;;;6194352;28;20029;-69
2021/11/15 04:19:23;;;;;;;7.50;5.55;;;20.90;52.90;;;;;;6212557;28;20014;-69
2021/11/15 04:22:23;;;;;;;7.07;5.18;;;20.90;52.90;;;;;;6217903;28;20037;-69
2021/11/15 04:25:24;;;;;;;7.78;5.30;;;20.90;52.90;;;;;;6216544;28;20396;-69
2021/11/15 04:28:24;;;;;;;7.45;5.57;;;20.90;52.90;;;;;;6211520;28;20495;-69
2021/11/15 04:31:26;;;;;;;7.85;5.53;;;20.90;53.00;;;;;;6183592;28;20022;-69
2021/11/15 04:34:26;;;;;;;6.57;5.40;;;20.90;52.90;;;;;;6195580;28;20030;-70
2021/11/15 04:37:27;;;;;;;6.82;5.13;;;20.90;52.90;;;;;;6191994;28;20511;-69
2021/11/15 04:40:28;;;;;;;6.60;5.35;;;20.90;52.90;;;;;;6191871;28;20031;-69
2021/11/15 04:43:29;;;;;;;7.05;5.55;;;20.90;52.90;;;;;;6212218;28;20431;-69
2021/11/15 04:46:29;;;;;;;6.93;4.97;;;20.90;53.00;;;;;;6215001;28;20113;-69
2021/11/15 04:49:30;;;;;;;8.90;6.25;;;20.90;53.00;;;;;;6196240;28;20068;-69
2021/11/15 04:52:31;;;;;;;6.35;4.95;;;20.90;52.90;;;;;;6215609;28;20030;-69
2021/11/15 04:55:34;;;;;;;10.10;5.82;;;20.90;53.00;;;;;;6215734;28;20503;-69
2021/11/15 04:58:35;;;;;;;7.93;5.88;;;20.90;52.90;;;;;;6217394;28;20022;-70
2021/11/15 05:01:36;;;;;;;8.57;5.70;;;20.90;53.00;;;;;;6216945;28;20022;-69
2021/11/15 05:04:37;;;;;;;7.45;6.00;;;20.90;53.00;;;;;;6216928;28;20505;-69
2021/11/15 05:07:37;;;;;;;7.68;5.63;;;20.90;53.00;;;;;;6209303;28;20031;-69
2021/11/15 05:10:38;;;;;;;7.72;5.32;;;20.90;53.00;;;;;;6193397;28;20031;-69
2021/11/15 05:13:39;;;;;;;7.68;5.30;;;20.90;52.90;;;;;;6198478;28;20057;-69
2021/11/15 05:16:40;;;;;;;6.25;5.20;;;20.90;52.90;;;;;;6192693;28;20070;-69
2021/11/15 05:19:42;;;;;;;6.32;5.00;;;20.90;52.80;;;;;;6215966;28;20018;-69
2021/11/15 05:22:44;;;;;;;7.68;5.70;;;20.90;52.80;;;;;;6215772;28;20152;-70
2021/11/15 05:25:45;;;;;;;7.43;5.47;;;20.90;52.80;;;;;;6216822;28;20422;-70
2021/11/15 05:28:46;;;;;;;7.43;5.60;;;20.90;52.70;;;;;;6216739;28;20092;-69
2021/11/15 05:31:46;;;;;;;6.85;5.05;;;20.90;52.70;;;;;;6211531;28;20018;-69
2021/11/15 05:34:47;;;;;;;7.53;5.57;;;20.90;52.60;;;;;;6216747;28;20030;-69
2021/11/15 05:37:50;;;;;;;6.68;4.95;;;20.90;52.60;;;;;;6202670;28;20028;-69
2021/11/15 05:40:51;;;;;;;7.47;5.32;;;20.90;52.60;;;;;;6192412;28;20389;-69
2021/11/15 05:43:52;;;;;;;6.93;5.00;;;20.90;52.50;;;;;;6190615;28;20062;-69
2021/11/15 05:46:53;;;;;;;7.72;5.30;;;20.90;52.50;;;;;;6212795;28;20025;-69
2021/11/15 05:49:53;;;;;;;6.10;4.60;;;20.90;52.50;;;;;;6215665;28;20475;-69
2021/11/15 05:52:55;;;;;;;7.97;5.78;;;20.90;52.50;;;;;;6225505;28;20100;-69
2021/11/15 05:55:56;;;;;;;7.55;5.45;;;20.90;52.50;;;;;;6190612;28;20026;-69
2021/11/15 05:58:56;;;;;;;7.22;4.90;;;21.00;52.60;;;;;;6211437;28;20018;-69
2021/11/15 06:01:57;;;;;;;6.35;5.20;;;21.00;52.60;;;;;;6203630;28;20398;-70
2021/11/15 06:04:58;;;;;;;7.78;5.28;;;21.00;52.60;;;;;;6216602;28;20026;-69
2021/11/15 06:07:58;;;;;;;6.90;4.90;;;20.90;52.40;;;;;;6216310;28;20021;-69
2021/11/15 06:10:59;;;;;;;6.75;5.03;;;21.00;52.50;;;;;;6216591;28;20018;-69
2021/11/15 06:13:59;;;;;;;6.18;4.65;;;21.00;52.50;;;;;;6212053;28;20049;-69
2021/11/15 06:17:00;;;;;;;7.43;5.28;;;21.00;52.60;;;;;;6216426;28;20419;-69
2021/11/15 06:20:01;;;;;;;7.07;5.35;;;21.00;52.60;;;;;;6209009;28;20115;-69
2021/11/15 06:23:02;;;;;;;7.22;5.32;;;21.00;52.60;;;;;;6198793;28;20030;-69
2021/11/15 06:26:02;;;;;;;8.18;5.57;;;21.00;52.70;;;;;;6202815;28;20038;-69
2021/11/15 06:29:03;;;;;;;6.38;5.20;;;21.00;52.60;;;;;;6191661;28;20057;-69
2021/11/15 06:32:06;;;;;;;6.47;4.93;;;21.00;52.70;;;;;;6191615;28;20023;-69
2021/11/15 06:35:07;;;;;;;5.97;4.38;;;21.00;52.80;;;;;;6191582;28;20169;-69
2021/11/15 06:38:08;;;;;;;7.40;5.10;;;21.00;52.80;;;;;;6208133;28;20037;-69
2021/11/15 06:41:08;;;;;;;6.03;4.63;;;21.00;52.80;;;;;;6214805;28;20106;-70
2021/11/15 06:44:09;;;;;;;7.53;4.95;;;21.00;52.80;;;;;;6215498;28;20030;-69
2021/11/15 06:47:10;;;;;;;6.22;4.82;;;21.00;52.90;;;;;;6216018;28;20038;-69
2021/11/15 06:50:13;;;;;;;7.10;5.28;;;21.00;52.90;;;;;;6216188;28;20030;-69
2021/11/15 06:53:13;;;;;;;6.60;4.95;;;21.00;52.80;;;;;;6215803;28;20022;-70
2021/11/15 06:56:14;;;;;;;6.55;4.72;;;21.00;52.90;;;;;;6215740;28;20553;-69
2021/11/15 06:59:14;;;;;;;8.85;5.20;;;21.10;52.90;;;;;;6210841;28;20034;-69
2021/11/15 07:02:15;;;;;;;7.65;5.45;;;21.10;53.00;;;;;;6195350;28;20084;-69
2021/11/15 07:05:17;;;;;;;7.32;5.45;;;21.10;53.00;;;;;;6223183;28;20030;-70
2021/11/15 07:08:17;;;;;;;8.05;5.65;;;21.10;53.00;;;;;;6211518;28;20030;-70
2021/11/15 07:11:18;;;;;;;7.68;5.50;;;21.10;53.00;;;;;;6198276;28;20039;-69
2021/11/15 07:14:19;;;;;;;7.65;5.70;;;21.10;53.00;;;;;;6204033;28;20545;-69
2021/11/15 07:17:19;;;;;;;7.28;5.35;;;21.10;53.00;;;;;;6202345;28;20056;-66
2021/11/15 07:20:20;;;;;;;8.02;5.25;;;21.10;53.00;;;;;;6223644;28;20026;-69
2021/11/15 07:23:22;;;;;;;6.72;5.13;;;21.10;53.00;;;;;;6223091;28;20097;-66
2021/11/15 07:26:23;;;;;;;6.70;4.93;;;21.10;53.10;;;;;;6217682;28;20476;-69
2021/11/15 07:29:24;;;;;;;6.57;4.88;;;21.10;53.10;;;;;;6195665;28;20038;-69
2021/11/15 07:32:24;;;;;;;7.60;4.93;;;21.10;53.10;;;;;;6201267;28;20494;-69
2021/11/15 07:35:25;;;;;;;7.25;5.00;;;21.10;53.10;;;;;;6222085;28;20022;-69
2021/11/15 07:38:26;;;;;;;6.68;5.10;;;21.10;53.10;;;;;;6221207;28;20018;-68
2021/11/15 07:41:26;;;;;;;8.02;4.93;;;21.10;53.10;;;;;;6223006;28;20037;-69
2021/11/15 07:44:27;;;;;;;8.02;5.80;;;21.10;53.10;;;;;;6203239;28;20385;-69
2021/11/15 07:47:27;;;;;;;8.02;5.43;;;21.10;53.10;;;;;;6196496;28;20030;-69
2021/11/15 07:50:28;;;;;;;8.50;5.88;;;21.10;53.10;;;;;;6196701;28;20403;-68
2021/11/15 07:53:30;;;;;;;7.78;5.53;;;21.10;53.20;;;;;;6197522;28;20442;-69
2021/11/15 07:56:31;;;;;;;6.78;5.13;;;21.10;53.20;;;;;;6197827;28;20027;-69
2021/11/15 07:59:32;;;;;;;7.88;4.97;;;21.10;53.20;;;;;;6221901;28;20030;-69
2021/11/15 08:02:32;;;;;;;7.97;5.32;;;21.10;53.20;;;;;;6212625;28;20030;-69
2021/11/15 08:05:34;;;;;;;6.47;5.03;;;21.10;53.20;;;;;;6197860;28;20101;-69
2021/11/15 08:08:35;;;;;;;6.22;4.68;;;21.10;53.20;;;;;;6211742;28;20031;-68
2021/11/15 08:11:37;;;;;;;7.80;5.25;;;21.10;53.20;;;;;;6196734;28;20065;-68
2021/11/15 08:14:42;;;;;;;7.53;5.55;;;21.10;53.20;;;;;;6195780;28;20124;-69
2021/11/15 08:17:46;;;;;;;7.68;5.75;;;21.10;53.20;;;;;;6201608;28;20053;-69
2021/11/15 08:20:48;;;;;;;7.28;4.93;;;21.10;53.20;;;;;;6209771;28;20037;-68
2021/11/15 08:23:50;;;;;;;9.52;5.30;;;21.10;53.20;;;;;;6221091;28;20109;-69
2021/11/15 08:26:58;;;;;;;8.00;5.25;;;21.10;53.20;;;;;;6219740;28;20030;-69
2021/11/15 08:29:59;;;;;;;6.35;5.05;;;21.10;53.10;;;;;;6214630;28;20113;-69
2021/11/15 08:33:00;;;;;;;7.05;5.22;;;21.10;53.20;;;;;;6213303;28;20564;-69
2021/11/15 08:36:01;;;;;;;6.05;4.35;;;21.10;53.20;;;;;;6220487;28;20065;-69
2021/11/15 08:39:22;;;;;;;7.70;5.07;;;21.10;53.20;;;;;;6211506;28;20030;-69
2021/11/15 08:42:23;;;;;;;7.05;5.07;;;21.10;53.20;;;;;;6206368;28;20029;-69
2021/11/15 08:45:23;;;;;;;7.82;5.20;;;21.10;53.10;;;;;;6220601;28;20368;-68
2021/11/15 08:48:24;;;;;;;6.13;4.80;;;21.10;53.10;;;;;;6218751;28;20387;-68
2021/11/15 08:51:25;;;;;;;7.95;5.03;;;21.10;53.80;;;;;;6219235;28;20109;-69
2021/11/15 08:54:27;;;;;;;7.05;5.03;;;21.10;53.10;;;;;;6219194;28;20030;-69
2021/11/15 08:57:28;;;;;;;7.45;5.40;;;21.10;53.10;;;;;;6220188;28;20076;-69
2021/11/15 09:00:29;;;;;;;6.82;4.70;;;21.10;53.10;;;;;;6221744;28;20041;-70
2021/11/15 09:03:30;;;;;;;7.22;4.63;;;21.10;53.10;;;;;;6216920;28;20027;-68
2021/11/15 09:06:34;;;;;;;7.50;5.47;;;21.10;53.10;;;;;;6211491;28;20026;-69
2021/11/15 09:09:35;;;;;;;7.15;4.97;;;21.10;53.20;;;;;;6219739;28;20030;-70
2021/11/15 09:12:36;;;;;;;6.90;5.45;;;21.10;53.80;;;;;;6220157;28;20646;-67
2021/11/15 09:15:37;;;;;;;7.15;5.13;;;21.10;53.10;;;;;;6195623;28;20026;-70
2021/11/15 09:18:38;;;;;;;7.20;5.07;;;21.10;53.10;;;;;;6211192;28;20040;-68
2021/11/15 09:21:40;;;;;;;6.70;5.30;;;21.10;53.20;;;;;;6221537;28;20484;-67
2021/11/15 09:24:41;;;;;;;8.18;5.32;;;21.10;53.10;;;;;;6220026;28;20080;-70
2021/11/15 09:27:42;;;;;;;6.78;5.10;;;21.10;53.10;;;;;;6204858;28;20100;-70
2021/11/15 09:30:44;;;;;;;6.68;4.82;;;21.10;53.10;;;;;;6197086;28;20026;-67
2021/11/15 09:33:44;;;;;;;6.32;4.97;;;21.10;53.10;;;;;;6195182;28;20081;-67
2021/11/15 09:36:45;;;;;;;6.53;4.53;;;21.10;53.10;;;;;;6201210;28;20022;-67
2021/11/15 09:39:48;;;;;;;7.90;5.55;;;21.10;53.10;;;;;;6219133;28;20026;-66
2021/11/15 09:42:50;;;;;;;7.35;5.15;;;21.10;53.10;;;;;;6205531;28;20023;-67
2021/11/15 09:45:51;;;;;;;7.47;5.28;;;21.10;53.10;;;;;;6194639;28;20018;-67
2021/11/15 09:49:09;;;;;;;7.45;5.22;;;21.10;53.10;;;;;;6216430;28;20029;-67
2021/11/15 09:52:10;;;;;;;7.90;5.35;;;21.10;53.10;;;;;;6212361;28;20030;-66
2021/11/15 09:55:11;;;;;;;6.22;4.88;;;21.10;53.10;;;;;;6204080;28;20373;-67
2021/11/15 09:58:11;;;;;;;6.50;4.70;;;21.10;53.20;;;;;;6218778;28;20033;-66
2021/11/15 10:01:13;;;;;;;9.30;4.35;;;21.10;53.10;;;;;;6218249;28;20318;-66
2021/11/15 10:04:17;;;;;;;6.93;5.20;;;21.10;53.10;;;;;;6218015;28;20104;-66
2021/11/15 10:07:35;;;;;;;6.82;4.97;;;21.10;53.10;;;;;;6217713;28;20033;-66
2021/11/15 10:10:44;;;;;;;6.70;5.07;;;21.10;53.10;;;;;;6219174;28;20042;-66
2021/11/15 10:13:46;;;;;;;6.95;4.90;;;21.10;53.10;;;;;;6218750;28;20050;-66
2021/11/15 10:16:58;;;;;;;8.20;5.15;;;21.10;53.10;;;;;;6219686;28;20472;-66
2021/11/15 10:19:58;;;;;;;7.40;4.90;;;21.10;53.20;;;;;;6218963;28;20022;-66
2021/11/15 10:22:59;;;;;;;7.13;4.78;;;21.10;53.10;;;;;;6218633;28;20026;-67
2021/11/15 10:26:01;;;;;;;6.65;4.80;;;21.10;53.20;;;;;;6217559;28;20018;-67
2021/11/15 10:29:06;;;;;;;6.72;4.90;;;21.10;53.10;;;;;;6193163;28;20030;-67
2021/11/15 10:32:07;;;;;;;;;;;21.10;53.20;;;;;;6192230;28;20037;-66
2021/11/15 10:35:08;;;;;;;8.25;5.40;;;21.10;53.10;;;;;;6219514;28;19905;-70
2021/11/15 10:38:08;;;;;;;7.75;5.30;;;21.10;53.10;;;;;;6222818;28;20052;-70
2021/11/15 10:41:18;;;;;;;6.28;4.60;;;21.10;53.10;;;;;;6223455;28;20021;-70
2021/11/15 10:44:19;;;;;;;7.93;5.45;;;21.10;53.10;;;;;;6221815;28;20025;-69
2021/11/15 10:47:34;;;;;;;6.05;4.43;;;21.10;53.20;;;;;;6221923;28;20117;-70
2021/11/15 10:50:50;;;;;;;7.20;4.97;;;21.10;53.10;;;;;;6223600;28;20030;-69
2021/11/15 10:53:56;;;;;;;6.80;4.90;;;21.10;53.10;;;;;;6223268;28;20076;-69
2021/11/15 10:56:59;;;;;;;6.80;4.97;;;21.10;53.10;;;;;;6223124;28;20105;-69
2021/11/15 11:00:10;;;;;;;6.30;4.65;;;21.10;53.10;;;;;;6221644;28;20026;-69
2021/11/15 11:03:17;;;;;;;6.40;4.78;;;21.10;53.10;;;;;;6217303;28;20108;-71
2021/11/15 11:06:18;;;;;;;5.75;4.20;;;21.10;53.10;;;;;;6221946;28;20036;-69
2021/11/15 11:09:39;;;;;;;6.40;4.78;;;21.10;53.10;;;;;;6222895;28;20053;-69
2021/11/15 11:12:46;;;;;;;8.23;5.13;;;21.10;53.10;;;;;;6221170;28;20046;-69
2021/11/15 11:15:53;;;;;;;6.65;4.65;;;21.10;53.10;;;;;;6198646;28;20027;-70
2021/11/15 11:19:14;;;;;;;7.13;5.15;;;21.10;53.10;;;;;;6213632;28;20080;-69
2021/11/15 11:25:25;;;;;;;6.43;4.53;;;21.10;53.10;;;;;;6201048;28;20022;-70
2021/11/15 11:28:31;;;;;;;;;;;21.10;53.10;;;;;;6218883;28;20450;-70
2021/11/15 11:31:39;;;;;;;6.50;4.50;;;21.10;53.10;;;;;;6224071;28;20313;-69
2021/11/15 11:34:41;;;;;;;7.22;4.47;;;21.10;53.10;;;;;;6221284;28;20069;-69
2021/11/15 11:37:41;;;;;;;6.60;4.57;;;21.10;53.10;;;;;;6222070;28;20076;-69
2021/11/15 11:40:43;;;;;;;6.75;4.55;;;21.10;53.90;;;;;;6222345;28;20033;-69
2021/11/15 11:43:46;;;;;;;7.30;5.30;;;21.10;53.10;;;;;;6220924;28;20033;-69
2021/11/15 11:46:47;;;;;;;6.10;4.43;;;21.10;53.10;;;;;;6222218;28;20022;-69
2021/11/15 11:49:47;;;;;;;6.75;4.55;;;21.10;53.10;;;;;;6221081;28;20440;-70
2021/11/15 11:53:07;;;;;;;7.55;4.97;;;21.10;53.10;;;;;;6222166;28;20106;-69
2021/11/15 11:56:21;;;;;;;6.13;4.82;;;21.10;53.10;;;;;;6220895;28;20066;-71
2021/11/15 11:59:24;;;;;;;5.88;4.53;;;21.10;53.10;;;;;;6222129;28;20158;-69
2021/11/15 12:02:27;;;;;;;6.90;4.57;;;21.10;53.10;;;;;;6221894;28;20026;-69
2021/11/15 12:05:29;;;;;;;6.75;4.63;;;21.10;53.10;;;;;;6237438;28;20037;-69
2021/11/15 12:08:55;;;;;;;6.65;5.00;;;21.10;53.10;;;;;;6220725;28;20587;-70
2021/11/15 12:12:00;;;;;;;5.68;4.18;;;21.10;53.10;;;;;;6220141;28;20073;-69
2021/11/15 12:15:06;;;;;;;6.53;4.65;;;21.10;53.10;;;;;;6200860;28;20028;-70
2021/11/15 12:18:26;;;;;;;5.85;4.13;;;21.10;53.20;;;;;;6203163;28;20049;-70
2021/11/15 12:21:36;;;;;;;6.68;4.55;;;21.10;53.10;;;;;;6221295;28;20030;-69
2021/11/15 12:24:57;;;;;;;6.88;5.03;;;21.10;53.10;;;;;;6203741;28;20054;-69
2021/11/15 12:28:00;;;;;;;5.10;3.88;;;21.10;53.10;;;;;;6220904;28;20093;-70
2021/11/15 12:31:02;;;;;;;5.93;4.38;;;21.10;53.20;;;;;;6193553;28;20030;-69
2021/11/15 12:34:04;;;;;;;6.72;4.75;;;21.10;53.10;;;;;;6208310;28;20037;-71
2021/11/15 12:37:07;;;;;;;6.20;4.43;;;21.10;53.10;;;;;;6196837;28;20034;-70
2021/11/15 12:40:30;;;;;;;6.68;4.00;;;21.10;53.10;;;;;;6196549;28;20512;-69
2021/11/15 12:43:31;;;;;;;6.28;4.20;;;21.10;53.10;;;;;;6214241;28;20022;-69
2021/11/15 12:47:04;;;;;;;6.30;4.38;;;21.10;53.10;;;;;;6220632;28;20109;-69
2021/11/15 12:50:11;;;;;;;6.38;4.63;;;21.10;53.10;;;;;;6208193;28;20068;-69
2021/11/15 12:53:12;;;;;;;5.45;4.22;;;21.10;53.10;;;;;;6220428;28;20116;-69
2021/11/15 12:56:21;;;;;;;7.07;4.88;;;21.10;53.10;;;;;;6220345;28;20090;-70
2021/11/15 12:59:22;;;;;;;8.30;4.97;;;21.10;53.10;;;;;;6195805;28;20038;-70
2021/11/15 13:02:26;;;;;;;6.30;4.70;;;21.10;53.10;;;;;;6202795;28;20030;-69
2021/11/15 13:05:30;;;;;;;5.47;4.07;;;21.10;53.10;;;;;;6220195;28;20034;-71
2021/11/15 13:08:31;;;;;;;5.37;4.00;;;21.10;53.10;;;;;;6219760;28;20030;-69
2021/11/15 13:11:32;;;;;;;6.45;4.47;;;21.10;53.10;;;;;;6219663;28;20722;-69
2021/11/15 13:14:33;;;;;;;5.72;4.10;;;21.10;53.10;;;;;;6202844;28;20097;-70
2021/11/15 13:17:36;;;;;;;5.93;4.10;;;21.10;53.10;;;;;;6201476;28;20029;-70
2021/11/15 13:20:37;;;;;;;5.18;4.30;;;21.10;53.10;;;;;;6219914;28;20105;-70
2021/11/15 13:23:38;;;;;;;7.28;4.57;;;21.10;53.10;;;;;;6219758;28;20022;-69
2021/11/15 13:26:40;;;;;;;7.00;4.60;;;21.10;53.10;;;;;;6209531;28;20108;-69
2021/11/15 13:29:41;;;;;;;6.55;4.30;;;21.10;53.10;;;;;;6216281;28;20054;-71
2021/11/15 13:32:51;;;;;;;6.20;4.30;;;21.10;53.90;;;;;;6207796;28;20034;-70
2021/11/15 13:35:52;;;;;;;5.55;4.20;;;21.10;53.10;;;;;;6219834;28;20037;-70
2021/11/15 13:38:53;;;;;;;5.35;4.35;;;21.10;53.10;;;;;;6219575;28;20080;-69
2021/11/15 13:41:54;;;;;;;5.90;4.07;;;21.20;53.20;;;;;;6220751;28;20026;-69
2021/11/15 13:44:55;;;;;;;6.25;4.45;;;21.10;53.20;;;;;;6219242;28;20026;-70
2021/11/15 13:47:56;;;;;;;6.22;4.38;;;21.10;53.10;;;;;;6218239;28;20124;-69
2021/11/15 13:50:57;;;;;;;5.97;4.50;;;21.10;53.10;;;;;;6219089;28;20164;-70
2021/11/15 13:53:57;;;;;;;4.70;3.53;;;21.10;53.10;;;;;;6216855;28;20033;-69
2021/11/15 13:56:58;;;;;;;5.55;4.28;;;21.10;53.10;;;;;;6199318;28;20053;-70
2021/11/15 13:59:59;;;;;;;5.50;4.10;;;21.10;53.10;;;;;;6219280;28;20065;-69
2021/11/15 14:02:59;;;;;;;5.40;3.88;;;21.20;53.90;;;;;;6205908;28;20173;-69
2021/11/15 14:06:01;;;;;;;5.85;4.13;;;21.10;53.10;;;;;;6195161;28;20069;-70
2021/11/15 14:09:02;;;;;;;6.70;4.78;;;21.10;53.10;;;;;;6204390;28;20038;-69
2021/11/15 14:12:04;;;;;;;5.63;4.15;;;21.10;53.10;;;;;;6198911;28;20052;-69
2021/11/15 14:15:06;;;;;;;6.13;4.32;;;21.10;53.10;;;;;;6202918;28;20026;-69
2021/11/15 14:18:08;;;;;;;4.25;3.55;;;21.10;53.10;;;;;;6209571;28;20097;-70
2021/11/15 14:21:09;;;;;;;6.63;4.47;;;21.10;53.10;;;;;;6239960;28;20292;-69
2021/11/15 14:24:09;;;;;;;6.43;4.07;;;21.10;53.10;;;;;;6218286;28;20033;-69
2021/11/15 14:27:10;;;;;;;5.50;4.03;;;21.10;53.10;;;;;;6211415;28;20057;-69
2021/11/15 14:30:12;;;;;;;7.10;4.18;;;21.10;53.10;;;;;;6199554;28;20034;-69
2021/11/15 14:33:13;;;;;;;5.75;4.43;;;21.10;53.10;;;;;;6217964;28;20065;-69
2021/11/15 14:36:13;;;;;;;6.13;4.18;;;21.10;53.10;;;;;;6223454;28;20382;-70
2021/11/15 14:39:14;;;;;;;5.10;3.72;;;21.10;53.10;;;;;;6222547;28;20025;-69
2021/11/15 14:42:15;;;;;;;6.40;4.07;;;21.10;53.10;;;;;;6223696;28;20463;-70
2021/11/15 14:45:17;;;;;;;5.30;3.95;;;21.10;53.10;;;;;;6223693;28;20026;-69
2021/11/15 14:48:17;;;;;;;4.97;3.75;;;21.10;53.10;;;;;;6206140;28;20041;-70
2021/11/15 14:51:18;;;;;;;6.10;4.43;;;21.10;53.20;;;;;;6199669;28;20030;-69
2021/11/15 14:54:20;;;;;;;5.75;4.15;;;21.10;53.20;;;;;;6223720;28;20049;-70
2021/11/15 14:57:21;;;;;;;5.85;4.40;;;21.10;53.20;;;;;;6239017;28;20046;-69
2021/11/15 15:00:23;;;;;;;5.03;3.95;;;21.20;53.30;;;;;;6222145;28;20410;-70
2021/11/15 15:03:25;;;;;;;5.78;3.55;;;21.10;53.10;;;;;;6221551;28;20038;-69
2021/11/15 15:06:26;;;;;;;5.03;3.50;;;21.10;53.10;;;;;;6221533;28;20022;-70
2021/11/15 15:09:30;;;;;;;5.78;3.85;;;21.10;53.10;;;;;;6221481;28;20030;-69
2021/11/15 15:12:30;;;;;;;5.65;4.20;;;21.20;53.20;;;;;;6221954;28;20495;-69
2021/11/15 15:15:31;;;;;;;6.85;4.35;;;21.20;53.20;;;;;;6198880;28;20030;-70
2021/11/15 15:18:36;;;;;;;6.03;4.32;;;21.10;53.10;;;;;;6198241;28;20033;-70
2021/11/15 15:21:37;;;;;;;5.65;4.03;;;21.20;53.20;;;;;;6197276;28;20019;-71
2021/11/15 15:24:37;;;;;;;5.47;3.92;;;21.20;53.20;;;;;;6221822;28;20514;-69
2021/11/15 15:27:38;;;;;;;6.00;4.13;;;21.20;53.20;;;;;;6222544;28;20030;-69
2021/11/15 15:30:39;;;;;;;6.68;4.30;;;21.20;53.20;;;;;;6201616;28;20497;-69
2021/11/15 15:33:42;;;;;;;5.22;4.03;;;21.20;53.20;;;;;;6195763;28;20026;-70
2021/11/15 15:36:43;;;;;;;5.63;4.10;;;21.10;53.10;;;;;;6202752;28;20022;-70
2021/11/15 15:39:44;;;;;;;6.82;4.30;;;21.10;53.10;;;;;;6222640;28;20101;-69
2021/11/15 15:42:46;;;;;;;5.53;3.80;;;21.10;53.20;;;;;;6208007;28;20227;-69
2021/11/15 15:45:49;;;;;;;6.00;4.07;;;21.20;53.20;;;;;;6198117;28;20023;-69
2021/11/15 15:48:55;;;;;;;4.78;3.40;;;21.20;53.20;;;;;;6218661;28;20056;-69
2021/11/15 15:51:56;;;;;;;5.43;3.65;;;21.10;53.20;;;;;;6222243;28;20335;-69
2021/11/15 15:54:56;;;;;;;6.13;4.25;;;21.10;53.10;;;;;;6222176;28;20096;-69